createdAt,value
2022-10-03T00:01:43.324Z,17.47
2022-10-03T00:04:14.675Z,17.50
2022-10-03T00:06:41.877Z,17.90
2022-10-03T00:09:13.847Z,18.33
2022-10-03T00:11:41.070Z,16.20
2022-10-03T00:14:03.807Z,19.03
2022-10-03T00:16:29.555Z,17.10
2022-10-03T00:18:55.500Z,18.13
2022-10-03T00:21:23.161Z,15.23
2022-10-03T00:23:49.881Z,13.50
2022-10-03T00:26:28.490Z,14.20
2022-10-03T00:28:52.540Z,14.03
2022-10-03T00:31:16.596Z,14.10
2022-10-03T00:33:41.782Z,14.87
2022-10-03T00:36:05.792Z,17.30
2022-10-03T00:38:45.504Z,16.30
2022-10-03T00:41:25.866Z,17.63
2022-10-03T00:44:02.856Z,16.40
2022-10-03T00:46:42.138Z,17.77
2022-10-03T00:49:21.535Z,16.97
2022-10-03T00:51:46.761Z,16.23
2022-10-03T00:54:14.813Z,16.50
2022-10-03T00:56:41.328Z,16.43
2022-10-03T00:59:11.153Z,18.07
2022-10-03T01:01:36.131Z,20.40
2022-10-03T01:04:05.657Z,18.40
2022-10-03T01:06:34.415Z,17.03
2022-10-03T01:09:04.096Z,15.80
2022-10-03T01:11:31.123Z,15.87
2022-10-03T01:13:57.532Z,14.20
2022-10-03T01:16:22.948Z,13.93
2022-10-03T01:18:52.317Z,13.67
2022-10-03T01:21:20.524Z,13.53
2022-10-03T01:23:56.579Z,14.13
2022-10-03T01:26:27.708Z,13.33
2022-10-03T01:29:10.836Z,14.27
2022-10-03T01:31:35.304Z,14.37
2022-10-03T01:34:00.942Z,13.67
2022-10-03T01:36:27.169Z,14.03
2022-10-03T01:38:50.692Z,12.73
2022-10-03T01:41:16.281Z,12.70
2022-10-03T01:43:40.516Z,13.93
2022-10-03T01:46:07.550Z,14.60
2022-10-03T01:48:35.310Z,12.77
2022-10-03T01:51:01.512Z,13.47
2022-10-03T01:53:27.680Z,12.60
2022-10-03T01:55:52.254Z,13.83
2022-10-03T01:58:14.500Z,14.80
2022-10-03T02:00:41.347Z,14.00
2022-10-03T02:03:09.712Z,13.20
2022-10-03T02:05:39.917Z,13.10
2022-10-03T02:08:04.725Z,14.50
2022-10-03T02:10:30.824Z,14.13
2022-10-03T02:12:57.166Z,12.93
2022-10-03T02:15:20.328Z,13.13
2022-10-03T02:17:47.479Z,13.27
2022-10-03T02:20:14.365Z,12.23
2022-10-03T02:22:38.841Z,13.80
2022-10-03T02:25:07.021Z,14.60
2022-10-03T02:27:38.636Z,13.97
2022-10-03T02:30:07.206Z,14.60
2022-10-03T02:32:47.707Z,14.90
2022-10-03T02:35:40.053Z,14.73
2022-10-03T02:38:09.752Z,15.50
2022-10-03T02:40:45.749Z,14.97
2022-10-03T02:43:19.072Z,14.40
2022-10-03T02:45:50.190Z,14.83
2022-10-03T02:48:31.671Z,15.00
2022-10-03T02:51:12.067Z,14.50
2022-10-03T02:53:58.076Z,13.67
2022-10-03T02:56:34.644Z,13.93
2022-10-03T02:59:14.544Z,13.30
2022-10-03T03:02:01.751Z,14.67
2022-10-03T03:04:41.601Z,13.00
2022-10-03T03:07:11.002Z,13.53
2022-10-03T03:09:48.801Z,12.77
2022-10-03T03:12:30.151Z,12.43
2022-10-03T03:15:09.751Z,12.50
2022-10-03T03:17:36.281Z,13.53
2022-10-03T03:20:21.801Z,13.67
2022-10-03T03:22:51.599Z,13.87
2022-10-03T03:25:39.893Z,14.50
2022-10-03T03:28:11.632Z,12.57
2022-10-03T03:30:38.684Z,13.87
2022-10-03T03:33:07.699Z,13.30
2022-10-03T03:35:35.137Z,13.47
2022-10-03T03:38:04.666Z,13.80
2022-10-03T03:40:32.762Z,13.93
2022-10-03T03:43:04.787Z,14.13
2022-10-03T03:45:42.869Z,13.03
2022-10-03T03:48:22.788Z,12.73
2022-10-03T03:50:49.425Z,13.13
2022-10-03T03:53:26.334Z,11.70
2022-10-03T03:55:55.548Z,12.60
2022-10-03T03:58:23.619Z,11.87
2022-10-03T04:00:56.551Z,12.10
2022-10-03T04:03:27.480Z,12.50
2022-10-03T04:06:03.631Z,11.90
2022-10-03T04:08:35.896Z,11.43
2022-10-03T04:11:02.456Z,11.53
2022-10-03T04:13:37.195Z,11.77
2022-10-03T04:16:08.567Z,10.90
2022-10-03T04:18:53.724Z,11.40
2022-10-03T04:21:28.116Z,11.67
2022-10-03T04:23:58.201Z,11.37
2022-10-03T04:26:28.199Z,11.03
2022-10-03T04:28:59.874Z,10.83
2022-10-03T04:31:26.684Z,11.80
2022-10-03T04:33:53.874Z,12.33
2022-10-03T04:36:25.593Z,11.93
2022-10-03T04:38:54.626Z,11.37
2022-10-03T04:41:23.429Z,11.57
2022-10-03T04:43:45.900Z,10.90
2022-10-03T04:46:15.789Z,11.20
2022-10-03T04:48:39.111Z,11.60
2022-10-03T04:51:04.420Z,10.10
2022-10-03T04:53:39.048Z,11.00
2022-10-03T04:56:06.316Z,10.40
2022-10-03T04:58:32.595Z,10.53
2022-10-03T05:00:58.542Z,10.43
2022-10-03T05:03:22.609Z,10.50
2022-10-03T05:05:48.746Z,9.30
2022-10-03T05:08:17.205Z,9.97
2022-10-03T05:10:45.364Z,9.80
2022-10-03T05:13:11.539Z,8.93
2022-10-03T05:15:36.016Z,10.40
2022-10-03T05:18:02.757Z,8.80
2022-10-03T05:20:28.355Z,9.57
2022-10-03T05:22:56.350Z,9.30
2022-10-03T05:25:21.734Z,9.03
2022-10-03T05:27:47.111Z,9.50
2022-10-03T05:30:09.717Z,9.97
2022-10-03T05:32:36.925Z,9.50
2022-10-03T05:35:04.067Z,7.90
2022-10-03T05:37:36.381Z,8.77
2022-10-03T05:39:59.665Z,9.00
2022-10-03T05:42:38.396Z,8.33
2022-10-03T05:45:03.461Z,8.80
2022-10-03T05:47:46.496Z,8.67
2022-10-03T05:50:28.373Z,9.50
2022-10-03T05:53:00.344Z,8.70
2022-10-03T05:55:30.804Z,9.17
2022-10-03T05:58:15.081Z,8.50
2022-10-03T06:00:45.980Z,8.50
2022-10-03T06:03:26.430Z,8.70
2022-10-03T06:06:01.758Z,8.27
2022-10-03T06:08:48.489Z,8.33
2022-10-03T06:11:15.106Z,7.87
2022-10-03T06:13:47.192Z,8.00
2022-10-03T06:16:15.002Z,8.77
2022-10-03T06:18:50.743Z,8.30
2022-10-03T06:21:20.070Z,9.00
2022-10-03T06:24:07.001Z,9.37
2022-10-03T06:26:46.409Z,9.23
2022-10-03T06:29:29.009Z,8.63
2022-10-03T06:32:08.256Z,8.90
2022-10-03T06:34:48.737Z,9.27
2022-10-03T06:37:22.761Z,9.67
2022-10-03T06:40:07.479Z,8.90
2022-10-03T06:42:43.676Z,8.90
2022-10-03T06:45:18.624Z,9.70
2022-10-03T06:47:58.836Z,8.73
2022-10-03T06:50:28.426Z,9.10
2022-10-03T06:52:59.081Z,8.97
2022-10-03T06:55:38.227Z,9.90
2022-10-03T06:58:19.373Z,9.27
2022-10-03T07:00:50.017Z,8.93
2022-10-03T07:03:23.919Z,8.07
2022-10-03T07:05:55.817Z,8.27
2022-10-03T07:08:45.265Z,8.17
2022-10-03T07:11:12.368Z,8.13
2022-10-03T07:13:51.909Z,8.20
2022-10-03T07:16:27.658Z,8.87
2022-10-03T07:19:00.229Z,9.43
2022-10-03T07:21:40.454Z,8.90
2022-10-03T07:24:11.032Z,9.10
2022-10-03T07:26:40.145Z,8.90
2022-10-03T07:29:24.957Z,9.33
2022-10-03T07:32:01.159Z,9.23
2022-10-03T07:34:41.080Z,11.30
2022-10-03T07:37:40.904Z,11.50
2022-10-03T07:40:23.122Z,11.27
2022-10-03T07:43:03.937Z,10.33
2022-10-03T07:45:43.392Z,10.50
2022-10-03T07:48:22.665Z,10.17
2022-10-03T07:50:58.113Z,10.43
2022-10-03T07:53:24.781Z,10.33
2022-10-03T07:55:56.915Z,11.10
2022-10-03T07:58:37.677Z,11.10
2022-10-03T08:01:09.431Z,11.80
2022-10-03T08:03:58.132Z,12.17
2022-10-03T08:06:24.684Z,12.67
2022-10-03T08:08:56.920Z,14.07
2022-10-03T08:11:28.362Z,14.20
2022-10-03T08:14:02.582Z,13.73
2022-10-03T08:16:32.566Z,13.37
2022-10-03T08:19:06.163Z,12.97
2022-10-03T08:21:35.645Z,14.00
2022-10-03T08:24:23.881Z,13.90
2022-10-03T08:26:55.186Z,13.40
2022-10-03T08:29:35.140Z,13.80
2022-10-03T08:32:14.629Z,13.70
2022-10-03T08:34:50.518Z,13.30
2022-10-03T08:37:26.815Z,13.67
2022-10-03T08:39:54.707Z,12.53
2022-10-03T08:42:30.387Z,12.73
2022-10-03T08:44:58.984Z,13.03
2022-10-03T08:47:40.008Z,13.03
2022-10-03T08:50:20.208Z,13.87
2022-10-03T08:52:51.758Z,13.30
2022-10-03T08:55:32.894Z,13.37
2022-10-03T08:58:13.419Z,13.63
2022-10-03T09:00:38.798Z,13.43
2022-10-03T09:03:32.650Z,12.53
2022-10-03T09:06:09.061Z,12.90
2022-10-03T09:08:38.750Z,13.50
2022-10-03T09:11:22.899Z,11.83
2022-10-03T09:14:05.080Z,10.77
2022-10-03T09:16:44.520Z,11.63
2022-10-03T09:19:20.393Z,11.07
2022-10-03T09:21:56.212Z,9.70
2022-10-03T09:24:33.725Z,9.90
2022-10-03T09:27:14.761Z,11.47
2022-10-03T09:29:43.285Z,11.03
2022-10-03T09:32:31.735Z,11.03
2022-10-03T09:35:10.825Z,12.20
2022-10-03T09:37:39.057Z,11.97
2022-10-03T09:40:17.242Z,11.13
2022-10-03T09:43:02.385Z,10.23
2022-10-03T09:45:53.754Z,10.60
2022-10-03T09:48:29.950Z,9.50
2022-10-03T09:51:10.207Z,8.70
2022-10-03T09:53:46.436Z,9.80
2022-10-03T09:56:22.908Z,8.73
2022-10-03T09:58:54.510Z,9.47
2022-10-03T10:01:21.748Z,10.33
2022-10-03T10:04:03.993Z,10.80
2022-10-03T10:06:33.517Z,10.80
2022-10-03T10:09:09.327Z,10.77
2022-10-03T10:11:35.757Z,10.50
2022-10-03T10:14:21.118Z,10.50
2022-10-03T10:16:50.474Z,9.97
2022-10-03T10:19:27.314Z,9.10
2022-10-03T10:21:58.727Z,8.77
2022-10-03T10:24:30.146Z,9.13
2022-10-03T10:27:00.552Z,9.27
2022-10-03T10:29:27.118Z,9.87
2022-10-03T10:32:16.678Z,9.27
2022-10-03T10:35:02.705Z,9.33
2022-10-03T10:37:47.829Z,10.30
2022-10-03T10:40:36.325Z,9.80
2022-10-03T10:43:28.493Z,9.50
2022-10-03T10:46:11.363Z,10.97
2022-10-03T10:48:53.854Z,11.17
2022-10-03T10:51:39.308Z,11.63
2022-10-03T10:54:18.320Z,9.17
2022-10-03T10:56:54.610Z,9.40
2022-10-03T10:59:34.761Z,8.33
2022-10-03T11:02:15.215Z,8.00
2022-10-03T11:04:52.554Z,8.37
2022-10-03T11:07:38.069Z,7.60
2022-10-03T11:10:31.063Z,7.87
2022-10-03T11:13:11.196Z,7.23
2022-10-03T11:15:50.252Z,7.40
2022-10-03T11:18:25.260Z,7.53
2022-10-03T11:21:10.372Z,6.80
2022-10-03T11:23:50.185Z,6.10
2022-10-03T11:26:32.757Z,5.20
2022-10-03T11:29:11.842Z,5.90
2022-10-03T11:32:08.292Z,5.50
2022-10-03T11:34:48.256Z,5.03
2022-10-03T11:37:13.399Z,5.60
2022-10-03T11:39:38.868Z,5.70
2022-10-03T11:42:04.658Z,5.70
2022-10-03T11:44:29.037Z,5.13
2022-10-03T11:46:55.884Z,5.57
2022-10-03T11:49:26.984Z,5.50
2022-10-03T11:51:53.539Z,5.33
2022-10-03T11:54:30.942Z,5.70
2022-10-03T11:56:58.065Z,5.77
2022-10-03T11:59:37.575Z,5.13
2022-10-03T12:02:10.113Z,5.40
2022-10-03T12:04:35.566Z,6.60
2022-10-03T12:07:19.526Z,6.00
2022-10-03T12:09:46.913Z,5.13
2022-10-03T12:12:12.101Z,4.23
2022-10-03T12:14:35.473Z,4.23
2022-10-03T12:17:09.879Z,4.37
2022-10-03T12:19:34.497Z,4.60
2022-10-03T12:21:57.211Z,4.70
2022-10-03T12:24:25.633Z,4.53
2022-10-03T12:26:52.388Z,4.80
2022-10-03T12:29:15.430Z,4.50
2022-10-03T12:31:40.997Z,4.07
2022-10-03T12:34:15.367Z,4.60
2022-10-03T12:36:43.870Z,3.90
2022-10-03T12:39:14.667Z,3.83
2022-10-03T12:41:45.959Z,4.10
2022-10-03T12:44:15.069Z,4.13
2022-10-03T12:46:40.450Z,4.53
2022-10-03T12:49:04.779Z,4.10
2022-10-03T12:51:42.477Z,4.03
2022-10-03T12:54:08.408Z,4.33
2022-10-03T12:56:33.728Z,4.30
2022-10-03T12:59:04.887Z,3.90
2022-10-03T13:01:29.012Z,3.77
2022-10-03T13:03:53.009Z,3.77
2022-10-03T13:06:26.680Z,3.60
2022-10-03T13:09:10.656Z,3.50
2022-10-03T13:11:40.299Z,4.03
2022-10-03T13:14:11.148Z,3.40
2022-10-03T13:16:33.201Z,3.20
2022-10-03T13:18:57.330Z,3.40
2022-10-03T13:21:44.568Z,3.47
2022-10-03T13:24:04.573Z,3.60
2022-10-03T13:26:36.298Z,3.30
2022-10-03T13:29:06.036Z,3.87
2022-10-03T13:31:29.524Z,3.43
2022-10-03T13:33:52.754Z,3.43
2022-10-03T13:36:18.857Z,3.43
2022-10-03T13:39:02.685Z,3.90
2022-10-03T13:41:27.627Z,3.53
2022-10-03T13:43:54.378Z,3.07
2022-10-03T13:46:18.434Z,3.53
2022-10-03T13:48:42.694Z,3.57
2022-10-03T13:51:09.813Z,3.73
2022-10-03T13:53:44.639Z,3.57
2022-10-03T13:56:10.417Z,3.47
2022-10-03T13:58:37.457Z,3.10
2022-10-03T14:01:13.741Z,3.70
2022-10-03T14:03:41.531Z,2.90
2022-10-03T14:06:11.533Z,3.00
2022-10-03T14:08:43.117Z,2.97
2022-10-03T14:11:26.064Z,3.20
2022-10-03T14:13:54.004Z,7.17
2022-10-03T14:16:23.154Z,3.77
2022-10-03T14:18:49.063Z,3.30
2022-10-03T14:21:29.171Z,3.07
2022-10-03T14:23:53.934Z,3.17
2022-10-03T14:26:19.603Z,3.00
2022-10-03T14:28:44.316Z,3.00
2022-10-03T14:31:10.166Z,3.00
2022-10-03T14:33:35.772Z,3.20
2022-10-03T14:36:02.768Z,3.07
2022-10-03T14:39:00.663Z,2.90
2022-10-03T14:41:25.830Z,3.03
2022-10-03T14:43:50.637Z,2.80
2022-10-03T14:46:11.936Z,2.97
2022-10-03T14:48:38.299Z,2.40
2022-10-03T14:51:07.345Z,2.70
2022-10-03T14:53:29.860Z,2.63
2022-10-03T14:55:57.158Z,2.30
2022-10-03T14:58:21.201Z,2.53
2022-10-03T15:00:45.824Z,2.77
2022-10-03T15:03:21.539Z,2.70
2022-10-03T15:05:55.525Z,2.77
2022-10-03T15:08:20.999Z,2.73
2022-10-03T15:10:43.149Z,2.97
2022-10-03T15:13:09.739Z,2.77
2022-10-03T15:15:33.433Z,2.77
2022-10-03T15:17:55.580Z,2.63
2022-10-03T15:20:18.972Z,3.00
2022-10-03T15:22:43.158Z,2.73
2022-10-03T15:25:08.910Z,2.80
2022-10-03T15:27:30.937Z,2.83
2022-10-03T15:29:54.479Z,2.93
2022-10-03T15:32:22.585Z,2.90
2022-10-03T15:34:49.133Z,2.83
2022-10-03T15:37:15.836Z,2.50
2022-10-03T15:39:40.444Z,3.00
2022-10-03T15:42:04.616Z,2.53
2022-10-03T15:44:33.165Z,3.20
2022-10-03T15:46:55.373Z,2.80
2022-10-03T15:49:20.871Z,3.20
2022-10-03T15:51:43.576Z,3.83
2022-10-03T15:54:07.147Z,2.93
2022-10-03T15:56:32.694Z,3.30
2022-10-03T15:58:55.434Z,3.10
2022-10-03T16:01:19.390Z,2.80
2022-10-03T16:03:43.416Z,3.10
2022-10-03T16:06:09.893Z,2.93
2022-10-03T16:08:36.406Z,2.67
2022-10-03T16:11:06.790Z,3.67
2022-10-03T16:13:34.924Z,2.80
2022-10-03T16:16:03.867Z,3.30
2022-10-03T16:18:44.497Z,3.47
2022-10-03T16:21:07.163Z,3.30
2022-10-03T16:23:29.513Z,3.23
2022-10-03T16:25:52.766Z,3.10
2022-10-03T16:28:17.423Z,3.20
2022-10-03T16:30:42.660Z,3.10
2022-10-03T16:33:06.953Z,3.00
2022-10-03T16:35:33.861Z,3.10
2022-10-03T16:37:54.909Z,3.40
2022-10-03T16:40:21.062Z,3.10
2022-10-03T16:42:44.908Z,3.80
2022-10-03T16:45:09.040Z,4.10
2022-10-03T16:47:34.330Z,3.87
2022-10-03T16:50:14.076Z,3.53
2022-10-03T16:52:37.674Z,3.90
2022-10-03T16:55:00.161Z,3.80
2022-10-03T16:57:23.306Z,4.00
2022-10-03T16:59:46.960Z,4.10
2022-10-03T17:02:12.858Z,3.90
2022-10-03T17:04:39.107Z,4.50
2022-10-03T17:07:01.314Z,4.13
2022-10-03T17:09:27.002Z,4.50
2022-10-03T17:11:51.862Z,4.40
2022-10-03T17:14:18.199Z,4.07
2022-10-03T17:16:47.605Z,4.10
2022-10-03T17:19:15.937Z,4.50
2022-10-03T17:21:39.929Z,5.00
2022-10-03T17:24:04.968Z,4.03
2022-10-03T17:26:29.422Z,4.60
2022-10-03T17:28:54.977Z,4.40
2022-10-03T17:31:31.242Z,4.47
2022-10-03T17:33:54.736Z,4.53
2022-10-03T17:36:31.349Z,3.97
2022-10-03T17:38:59.192Z,4.30
2022-10-03T17:41:24.839Z,4.30
2022-10-03T17:43:49.337Z,4.70
2022-10-03T17:46:15.939Z,4.10
2022-10-03T17:48:40.664Z,5.40
2022-10-03T17:51:11.708Z,5.37
2022-10-03T17:53:35.071Z,6.73
2022-10-03T17:55:59.271Z,6.60
2022-10-03T17:58:22.278Z,5.53
2022-10-03T18:00:56.985Z,6.30
2022-10-03T18:03:23.910Z,7.87
2022-10-03T18:05:47.215Z,7.40
2022-10-03T18:08:12.795Z,6.73
2022-10-03T18:10:37.300Z,7.23
2022-10-03T18:13:02.167Z,6.60
2022-10-03T18:15:26.536Z,5.40
2022-10-03T18:17:56.887Z,5.60
2022-10-03T18:20:27.398Z,5.50
2022-10-03T18:22:50.216Z,4.87
2022-10-03T18:25:33.543Z,5.80
2022-10-03T18:28:04.809Z,5.43
2022-10-03T18:30:32.625Z,5.80
2022-10-03T18:32:57.242Z,5.57
2022-10-03T18:35:21.526Z,6.10
2022-10-03T18:37:56.976Z,6.43
2022-10-03T18:40:19.972Z,6.97
2022-10-03T18:42:41.574Z,7.40
2022-10-03T18:45:02.940Z,6.70
2022-10-03T18:47:27.749Z,7.07
2022-10-03T18:49:57.849Z,7.13
2022-10-03T18:52:21.967Z,7.00
2022-10-03T18:54:49.431Z,7.60
2022-10-03T18:57:15.534Z,8.00
2022-10-03T18:59:40.269Z,6.77
2022-10-03T19:02:03.462Z,7.47
2022-10-03T19:04:34.816Z,7.87
2022-10-03T19:06:56.708Z,8.47
2022-10-03T19:09:22.495Z,8.63
2022-10-03T19:11:47.126Z,8.67
2022-10-03T19:14:11.370Z,7.70
2022-10-03T19:16:47.320Z,6.93
2022-10-03T19:19:12.553Z,7.40
2022-10-03T19:21:38.297Z,8.17
2022-10-03T19:24:02.724Z,15.07
2022-10-03T19:26:27.425Z,12.90
2022-10-03T19:28:49.658Z,9.13
2022-10-03T19:31:17.155Z,9.70
2022-10-03T19:33:44.665Z,9.53
2022-10-03T19:36:06.998Z,9.27
2022-10-03T19:38:33.529Z,9.50
2022-10-03T19:40:56.377Z,11.07
2022-10-03T19:43:30.844Z,9.37
2022-10-03T19:45:54.823Z,9.87
2022-10-03T19:48:18.508Z,9.63
2022-10-03T19:50:39.920Z,9.33
2022-10-03T19:53:01.143Z,9.13
2022-10-03T19:55:30.184Z,9.30
2022-10-03T19:57:53.051Z,10.23
2022-10-03T20:00:25.759Z,8.93
2022-10-03T20:02:52.736Z,9.23
2022-10-03T20:05:19.114Z,9.20
2022-10-03T20:07:45.708Z,9.23
2022-10-03T20:10:12.813Z,8.80
2022-10-03T20:12:40.350Z,8.83
2022-10-03T20:15:15.415Z,9.07
2022-10-03T20:17:38.599Z,9.53
2022-10-03T20:20:03.344Z,9.23
2022-10-03T20:22:26.000Z,8.90
2022-10-03T20:24:47.311Z,8.20
2022-10-03T20:27:14.311Z,9.50
2022-10-03T20:29:38.754Z,9.20
2022-10-03T20:32:01.122Z,9.73
2022-10-03T20:34:24.310Z,10.40
2022-10-03T20:36:47.499Z,10.33
2022-10-03T20:39:13.170Z,10.70
2022-10-03T20:41:40.354Z,10.73
2022-10-03T20:44:05.909Z,10.30
2022-10-03T20:46:33.577Z,10.17
2022-10-03T20:49:03.639Z,10.53
2022-10-03T20:51:25.059Z,9.90
2022-10-03T20:53:46.042Z,10.13
2022-10-03T20:56:09.651Z,10.30
2022-10-03T20:58:33.985Z,10.20
2022-10-03T21:01:00.322Z,10.40
2022-10-03T21:03:30.039Z,10.23
2022-10-03T21:05:52.070Z,11.20
2022-10-03T21:08:16.029Z,10.20
2022-10-03T21:10:38.461Z,11.33
2022-10-03T21:13:01.228Z,11.07
2022-10-03T21:15:29.593Z,13.07
2022-10-03T21:17:51.683Z,13.10
2022-10-03T21:20:16.576Z,12.57
2022-10-03T21:22:37.980Z,11.30
2022-10-03T21:25:00.353Z,10.50
2022-10-03T21:27:21.913Z,12.27
2022-10-03T21:29:53.425Z,12.27
2022-10-03T21:32:20.879Z,13.47
2022-10-03T21:34:44.893Z,12.13
2022-10-03T21:37:13.596Z,12.83
2022-10-03T21:39:40.388Z,13.70
2022-10-03T21:42:06.724Z,13.33
2022-10-03T21:44:32.952Z,12.77
2022-10-03T21:46:58.613Z,12.33
2022-10-03T21:49:37.774Z,13.07
2022-10-03T21:52:08.014Z,12.87
2022-10-03T21:54:38.090Z,13.50
2022-10-03T21:57:05.228Z,14.73
2022-10-03T21:59:40.844Z,22.10
2022-10-03T22:02:06.903Z,20.40
2022-10-03T22:04:31.423Z,17.10
2022-10-03T22:06:56.616Z,15.67
2022-10-03T22:09:18.231Z,17.10
2022-10-03T22:11:44.094Z,13.30
2022-10-03T22:14:10.172Z,13.30
2022-10-03T22:16:35.950Z,12.40
2022-10-03T22:19:14.840Z,13.17
2022-10-03T22:21:39.023Z,12.90
2022-10-03T22:24:04.329Z,13.70
2022-10-03T22:26:28.480Z,13.30
2022-10-03T22:28:53.946Z,12.47
2022-10-03T22:31:18.513Z,11.93
2022-10-03T22:33:45.038Z,12.07
2022-10-03T22:36:10.429Z,12.20
2022-10-03T22:38:33.239Z,12.00
2022-10-03T22:40:55.288Z,11.27
2022-10-03T22:43:17.317Z,11.00
2022-10-03T22:45:41.052Z,11.70
2022-10-03T22:48:04.182Z,11.13
2022-10-03T22:50:27.115Z,12.77
2022-10-03T22:52:50.728Z,13.00
2022-10-03T22:55:13.956Z,12.17
2022-10-03T22:57:36.087Z,10.83
2022-10-03T22:59:58.661Z,11.63
2022-10-03T23:02:26.992Z,11.57
2022-10-03T23:04:50.972Z,10.77
2022-10-03T23:07:26.734Z,10.17
2022-10-03T23:09:51.530Z,11.10
2022-10-03T23:12:13.154Z,12.10
2022-10-03T23:14:36.900Z,12.27
2022-10-03T23:17:05.920Z,11.20
2022-10-03T23:19:32.691Z,11.83
2022-10-03T23:21:56.595Z,11.37
2022-10-03T23:24:22.572Z,11.23
2022-10-03T23:26:51.795Z,11.40
2022-10-03T23:29:13.951Z,12.30
2022-10-03T23:31:51.625Z,11.40
2022-10-03T23:34:12.571Z,11.97
2022-10-03T23:36:35.388Z,11.47
2022-10-03T23:38:59.669Z,12.00
2022-10-03T23:41:29.460Z,10.90
2022-10-03T23:43:55.884Z,10.90
2022-10-03T23:46:18.963Z,10.57
2022-10-03T23:48:43.428Z,10.17
2022-10-03T23:51:06.875Z,9.83
2022-10-03T23:53:33.657Z,10.43
2022-10-03T23:55:55.267Z,10.50
2022-10-03T23:58:18.357Z,11.23
